createdAt,value
2024-03-24T00:00:05.903Z,56.69
2024-03-24T00:05:34.651Z,56.67
2024-03-24T00:10:37.548Z,56.63
2024-03-24T00:15:40.514Z,56.64
2024-03-24T00:20:43.514Z,56.62
2024-03-24T00:25:46.499Z,56.55
2024-03-24T00:30:49.551Z,56.26
2024-03-24T00:35:52.427Z,56.14
2024-03-24T00:40:55.664Z,56.05
2024-03-24T00:45:58.819Z,56.04
2024-03-24T00:51:01.947Z,55.89
2024-03-24T00:56:05.397Z,55.76
2024-03-24T01:01:08.868Z,55.74
2024-03-24T01:06:11.932Z,55.74
2024-03-24T01:11:15.355Z,55.66
2024-03-24T01:16:18.174Z,55.73
2024-03-24T01:21:21.309Z,55.65
2024-03-24T01:26:25.008Z,55.73
2024-03-24T01:31:27.980Z,55.64
2024-03-24T01:36:31.538Z,55.65
2024-03-24T01:41:34.440Z,55.58
2024-03-24T01:46:37.753Z,55.59
2024-03-24T01:51:40.687Z,55.64
2024-03-24T01:56:44.375Z,55.68
2024-03-24T02:01:47.437Z,55.74
2024-03-24T02:06:50.740Z,55.76
2024-03-24T02:11:53.619Z,55.81
2024-03-24T02:16:56.540Z,55.85
2024-03-24T02:21:59.458Z,55.90
2024-03-24T02:27:02.364Z,55.91
2024-03-24T02:32:05.770Z,55.94
2024-03-24T02:37:08.880Z,55.95
2024-03-24T02:42:11.843Z,55.98
2024-03-24T02:47:14.741Z,56.06
2024-03-24T02:52:17.565Z,56.19
2024-03-24T02:57:20.496Z,56.23
2024-03-24T03:02:23.332Z,56.25
2024-03-24T03:07:26.326Z,56.41
2024-03-24T03:12:29.206Z,56.42
2024-03-24T03:17:33.282Z,56.70
2024-03-24T03:22:36.291Z,56.64
2024-03-24T03:27:39.615Z,56.63
2024-03-24T03:32:42.603Z,56.90
2024-03-24T03:37:45.499Z,57.11
2024-03-24T03:42:48.376Z,57.31
2024-03-24T03:47:51.795Z,57.69
2024-03-24T03:52:56.743Z,57.96
2024-03-24T03:57:59.611Z,58.07
2024-03-24T04:03:02.637Z,58.24
2024-03-24T04:08:06.430Z,58.41
2024-03-24T04:13:09.325Z,58.67
2024-03-24T04:18:12.205Z,59.07
2024-03-24T04:23:15.065Z,59.22
2024-03-24T04:28:17.976Z,59.35
2024-03-24T04:33:20.824Z,59.47
2024-03-24T04:38:23.721Z,59.60
2024-03-24T04:43:27.769Z,59.75
2024-03-24T04:48:30.634Z,59.95
2024-03-24T04:53:33.494Z,59.93
2024-03-24T04:58:36.435Z,59.96
2024-03-24T05:03:39.373Z,60.14
2024-03-24T05:08:42.476Z,60.20
2024-03-24T05:13:48.761Z,60.26
2024-03-24T05:18:52.476Z,60.30
2024-03-24T05:23:55.464Z,60.42
2024-03-24T05:28:58.764Z,60.44
2024-03-24T05:34:01.902Z,60.54
2024-03-24T05:39:05.225Z,60.76
2024-03-24T05:44:08.168Z,60.80
2024-03-24T05:49:11.670Z,60.93
2024-03-24T05:54:14.471Z,60.84
2024-03-24T05:59:17.971Z,60.75
2024-03-24T06:04:20.962Z,60.63
2024-03-24T06:09:24.023Z,60.59
2024-03-24T06:14:26.881Z,60.54
2024-03-24T06:19:29.786Z,60.55
2024-03-24T06:24:32.735Z,60.50
2024-03-24T06:29:36.522Z,60.44
2024-03-24T06:34:39.449Z,60.27
2024-03-24T06:39:42.407Z,59.86
2024-03-24T06:44:47.659Z,59.56
2024-03-24T06:49:50.804Z,59.60
2024-03-24T06:54:54.348Z,60.50
2024-03-24T06:59:57.331Z,59.49
2024-03-24T07:05:00.406Z,58.97
2024-03-24T07:10:05.278Z,58.52
2024-03-24T07:15:09.113Z,58.02
2024-03-24T07:20:12.663Z,57.80
2024-03-24T07:25:15.926Z,57.93
2024-03-24T07:30:18.971Z,57.85
2024-03-24T07:35:22.248Z,58.02
2024-03-24T07:40:25.908Z,58.23
2024-03-24T07:45:31.726Z,58.23
2024-03-24T07:50:34.743Z,58.89
2024-03-24T07:55:37.644Z,59.62
2024-03-24T08:00:40.584Z,60.40
2024-03-24T08:05:43.447Z,60.89
2024-03-24T08:10:46.433Z,61.15
2024-03-24T08:15:49.457Z,61.65
2024-03-24T08:20:54.536Z,70.49
2024-03-24T08:25:59.426Z,68.73
2024-03-24T08:31:02.528Z,53.47
2024-03-24T08:36:06.245Z,51.24
2024-03-24T08:41:13.817Z,52.25
2024-03-24T08:46:16.856Z,53.45
2024-03-24T08:51:19.931Z,54.82
2024-03-24T08:56:22.929Z,55.99
2024-03-24T09:01:25.779Z,57.24
2024-03-24T09:06:28.781Z,58.37
2024-03-24T09:11:31.815Z,58.56
2024-03-24T09:16:37.708Z,59.62
2024-03-24T09:21:40.936Z,59.74
2024-03-24T09:26:44.295Z,60.47
2024-03-24T09:31:47.184Z,61.51
2024-03-24T09:36:50.431Z,61.51
2024-03-24T09:41:54.869Z,61.67
2024-03-24T09:47:00.720Z,61.51
2024-03-24T09:52:05.840Z,61.48
2024-03-24T09:57:08.716Z,67.97
2024-03-24T10:02:13.990Z,63.78
2024-03-24T10:07:17.261Z,51.27
2024-03-24T10:12:20.540Z,50.12
2024-03-24T10:17:23.864Z,51.40
2024-03-24T10:22:26.913Z,53.42
2024-03-24T10:27:30.963Z,54.13
2024-03-24T10:32:33.954Z,55.80
2024-03-24T10:37:37.515Z,57.36
2024-03-24T10:42:55.613Z,59.05
2024-03-24T10:48:04.763Z,60.01
2024-03-24T10:53:15.221Z,60.48
2024-03-24T10:58:21.430Z,60.59
2024-03-24T11:03:24.984Z,69.24
2024-03-24T11:08:27.963Z,58.76
2024-03-24T11:13:35.557Z,49.22
2024-03-24T11:18:38.600Z,50.35
2024-03-24T11:23:41.930Z,51.15
2024-03-24T11:28:52.215Z,51.99
2024-03-24T11:34:01.392Z,52.04
2024-03-24T11:39:07.370Z,52.53
2024-03-24T11:44:10.381Z,53.34
2024-03-24T11:49:13.284Z,52.26
2024-03-24T11:54:16.953Z,52.75
2024-03-24T11:59:21.731Z,53.23
2024-03-24T12:04:26.229Z,53.77
2024-03-24T12:09:31.926Z,55.77
2024-03-24T12:14:35.271Z,56.79
2024-03-24T12:19:38.347Z,57.40
2024-03-24T12:24:41.500Z,58.53
2024-03-24T12:29:52.571Z,59.94
2024-03-24T12:35:01.720Z,60.86
2024-03-24T12:40:05.340Z,60.78
2024-03-24T12:45:10.173Z,61.01
2024-03-24T12:50:39.157Z,61.02
2024-03-24T12:55:49.316Z,60.74
2024-03-24T13:00:53.303Z,60.81
2024-03-24T13:06:01.490Z,61.07
2024-03-24T13:11:12.128Z,61.68
2024-03-24T13:16:30.390Z,60.51
2024-03-24T13:21:38.113Z,58.59
2024-03-24T13:26:45.640Z,57.41
2024-03-24T13:31:48.875Z,56.06
2024-03-24T13:37:13.240Z,53.74
2024-03-24T13:42:32.887Z,53.64
2024-03-24T13:47:38.942Z,52.61
2024-03-24T13:52:43.708Z,49.16
2024-03-24T13:57:46.795Z,48.01
2024-03-24T14:02:50.214Z,48.27
2024-03-24T14:07:53.516Z,46.49
2024-03-24T14:13:44.548Z,47.61
2024-03-24T14:18:50.191Z,45.73
2024-03-24T14:23:57.992Z,45.69
2024-03-24T14:29:00.848Z,47.38
2024-03-24T14:34:03.884Z,47.81
2024-03-24T14:39:19.414Z,47.75
2024-03-24T14:44:44.029Z,47.72
2024-03-24T14:49:46.933Z,48.88
2024-03-24T14:54:49.803Z,48.69
2024-03-24T14:59:54.847Z,48.44
2024-03-24T15:04:58.183Z,49.13
2024-03-24T15:10:01.076Z,49.31
2024-03-24T15:15:04.861Z,49.41
2024-03-24T15:20:11.654Z,49.59
2024-03-24T15:25:14.735Z,49.27
2024-03-24T15:30:17.697Z,49.79
2024-03-24T15:35:20.691Z,49.87
2024-03-24T15:40:23.617Z,50.07
2024-03-24T15:45:26.662Z,50.06
2024-03-24T15:50:29.744Z,49.69
2024-03-24T15:55:42.488Z,49.47
2024-03-24T16:00:51.322Z,49.08
2024-03-24T16:05:54.248Z,49.35
2024-03-24T16:11:17.003Z,48.44
2024-03-24T16:16:20.155Z,48.31
2024-03-24T16:21:52.388Z,48.16
2024-03-24T16:26:55.319Z,47.94
2024-03-24T16:31:58.829Z,47.51
2024-03-24T16:37:01.744Z,47.71
2024-03-24T16:42:04.806Z,46.90
2024-03-24T16:47:07.720Z,46.67
2024-03-24T16:52:10.875Z,46.25
2024-03-24T16:57:14.055Z,45.74
2024-03-24T17:02:21.176Z,46.06
2024-03-24T17:07:24.133Z,45.88
2024-03-24T17:12:27.138Z,46.44
2024-03-24T17:17:30.103Z,47.47
2024-03-24T17:22:33.223Z,46.51
2024-03-24T17:27:36.256Z,46.58
2024-03-24T17:32:39.243Z,46.30
2024-03-24T17:37:42.576Z,46.57
2024-03-24T17:42:45.567Z,46.19
2024-03-24T17:47:48.771Z,46.89
2024-03-24T17:52:51.670Z,47.04
2024-03-24T17:57:57.070Z,46.60
2024-03-24T18:03:00.401Z,47.07
2024-03-24T18:08:22.392Z,46.61
2024-03-24T18:13:25.439Z,46.85
2024-03-24T18:18:28.376Z,46.67
2024-03-24T18:23:33.691Z,46.30
2024-03-24T18:28:40.199Z,46.98
2024-03-24T18:33:43.399Z,46.97
2024-03-24T18:38:48.145Z,46.90
2024-03-24T18:43:51.189Z,47.86
2024-03-24T18:48:54.133Z,49.25
2024-03-24T18:53:57.049Z,48.93
2024-03-24T18:58:59.970Z,48.90
2024-03-24T19:04:03.969Z,49.10
2024-03-24T19:09:09.382Z,49.38
2024-03-24T19:14:12.374Z,49.97
2024-03-24T19:19:15.583Z,49.73
2024-03-24T19:24:18.710Z,50.18
2024-03-24T19:29:21.666Z,49.87
2024-03-24T19:34:24.732Z,49.83
2024-03-24T19:39:27.646Z,49.88
2024-03-24T19:44:32.379Z,49.88
2024-03-24T19:49:37.112Z,49.98
2024-03-24T19:54:41.069Z,49.93
2024-03-24T19:59:46.337Z,49.91
2024-03-24T20:04:49.239Z,50.57
2024-03-24T20:09:55.746Z,50.41
2024-03-24T20:15:02.821Z,50.22
2024-03-24T20:20:07.922Z,50.51
2024-03-24T20:25:11.014Z,50.30
2024-03-24T20:30:14.490Z,50.28
2024-03-24T20:35:17.930Z,50.42
2024-03-24T20:40:20.966Z,50.48
2024-03-24T20:45:24.655Z,50.60
2024-03-24T20:50:30.446Z,50.75
2024-03-24T20:55:34.046Z,51.06
2024-03-24T21:00:37.135Z,51.64
2024-03-24T21:05:40.088Z,51.72
2024-03-24T21:10:45.067Z,52.00
2024-03-24T21:15:48.591Z,52.15
2024-03-24T21:20:52.411Z,51.91
2024-03-24T21:25:55.503Z,52.11
2024-03-24T21:30:58.538Z,52.20
2024-03-24T21:36:01.992Z,52.26
2024-03-24T21:41:23.636Z,52.82
2024-03-24T21:46:26.744Z,52.80
2024-03-24T21:51:29.663Z,53.41
2024-03-24T21:56:32.637Z,53.57
2024-03-24T22:01:35.516Z,53.51
2024-03-24T22:06:51.125Z,53.75
2024-03-24T22:11:59.056Z,54.02
2024-03-24T22:17:02.255Z,54.91
2024-03-24T22:22:06.300Z,55.08
2024-03-24T22:27:10.135Z,54.89
2024-03-24T22:32:13.010Z,54.95
2024-03-24T22:37:15.980Z,54.71
2024-03-24T22:42:19.346Z,54.69
2024-03-24T22:47:22.232Z,54.58
2024-03-24T22:52:25.451Z,54.25
2024-03-24T22:57:28.650Z,54.25
2024-03-24T23:02:33.155Z,54.23
2024-03-24T23:07:37.182Z,54.36
2024-03-24T23:12:40.156Z,54.92
2024-03-24T23:17:43.180Z,54.98
2024-03-24T23:22:46.024Z,55.49
2024-03-24T23:27:49.188Z,56.17
2024-03-24T23:32:52.059Z,56.60
2024-03-24T23:37:55.002Z,56.97
2024-03-24T23:42:58.064Z,56.99
2024-03-24T23:48:02.855Z,56.99
2024-03-24T23:53:05.764Z,56.71
2024-03-24T23:58:08.934Z,57.19
